createdAt,value
2018-03-29T00:02:29.056Z,99.90
2018-03-29T00:05:04.760Z,99.90
2018-03-29T00:07:39.151Z,99.90
2018-03-29T00:10:05.833Z,99.90
2018-03-29T00:12:40.501Z,99.90
2018-03-29T00:15:09.783Z,99.90
2018-03-29T00:17:43.236Z,99.90
2018-03-29T00:20:15.605Z,99.90
2018-03-29T00:22:48.184Z,99.90
2018-03-29T00:25:44.880Z,99.90
2018-03-29T00:28:12.272Z,99.90
2018-03-29T00:30:53.485Z,99.90
2018-03-29T00:33:43.263Z,99.90
2018-03-29T00:36:20.804Z,99.90
2018-03-29T00:38:53.651Z,99.90
2018-03-29T00:41:23.803Z,99.90
2018-03-29T00:43:53.983Z,99.90
2018-03-29T00:46:22.839Z,99.90
2018-03-29T00:48:54.974Z,99.90
2018-03-29T00:51:30.484Z,99.90
2018-03-29T00:54:13.923Z,99.90
2018-03-29T00:56:41.099Z,99.90
2018-03-29T00:59:26.875Z,99.90
2018-03-29T01:01:56.816Z,99.90
2018-03-29T01:04:27.215Z,99.90
2018-03-29T01:07:08.322Z,99.90
2018-03-29T01:09:54.952Z,99.90
2018-03-29T01:12:27.411Z,99.90
2018-03-29T01:14:59.759Z,99.90
2018-03-29T01:17:37.604Z,99.90
2018-03-29T01:20:06.072Z,99.90
2018-03-29T01:22:36.384Z,99.90
2018-03-29T01:25:12.179Z,99.90
2018-03-29T01:27:44.532Z,99.90
2018-03-29T01:30:14.899Z,99.90
2018-03-29T01:33:06.055Z,99.90
2018-03-29T01:35:46.091Z,99.90
2018-03-29T01:38:21.716Z,99.90
2018-03-29T01:40:50.867Z,99.90
2018-03-29T01:43:19.048Z,99.90
2018-03-29T01:45:46.384Z,99.90
2018-03-29T01:48:19.720Z,99.90
2018-03-29T01:50:52.475Z,99.90
2018-03-29T01:53:20.515Z,99.90
2018-03-29T01:55:50.794Z,99.90
2018-03-29T01:58:21.158Z,99.90
2018-03-29T02:00:53.649Z,99.90
2018-03-29T02:03:22.931Z,99.90
2018-03-29T02:05:55.771Z,99.90
2018-03-29T02:08:30.056Z,99.90
2018-03-29T02:11:07.194Z,99.90
2018-03-29T02:13:34.463Z,99.90
2018-03-29T02:16:09.706Z,99.90
2018-03-29T02:18:55.320Z,99.90
2018-03-29T02:21:27.683Z,99.90
2018-03-29T02:23:55.015Z,99.90
2018-03-29T02:26:22.699Z,99.90
2018-03-29T02:28:50.299Z,99.90
2018-03-29T02:31:20.691Z,99.90
2018-03-29T02:33:55.264Z,99.90
2018-03-29T02:36:32.963Z,99.90
2018-03-29T02:39:17.655Z,99.90
2018-03-29T02:41:50.107Z,99.90
2018-03-29T02:44:22.640Z,99.90
2018-03-29T02:47:06.396Z,99.90
2018-03-29T02:49:39.784Z,99.90
2018-03-29T02:52:18.702Z,99.90
2018-03-29T02:54:48.175Z,99.90
2018-03-29T02:57:18.504Z,99.90
2018-03-29T02:59:46.848Z,99.90
2018-03-29T03:02:19.367Z,99.90
2018-03-29T03:04:57.358Z,99.90
2018-03-29T03:07:28.746Z,99.90
2018-03-29T03:09:57.202Z,99.90
2018-03-29T03:12:30.531Z,99.90
2018-03-29T03:14:59.824Z,99.90
2018-03-29T03:17:28.963Z,99.90
2018-03-29T03:20:00.159Z,99.90
2018-03-29T03:22:31.352Z,99.90
2018-03-29T03:25:08.058Z,99.90
2018-03-29T03:27:35.347Z,99.90
2018-03-29T03:30:02.892Z,99.90
2018-03-29T03:32:30.309Z,99.90
2018-03-29T03:35:25.616Z,99.90
2018-03-29T03:37:57.076Z,99.90
2018-03-29T03:40:24.911Z,99.90
2018-03-29T03:42:52.203Z,99.90
2018-03-29T03:45:27.132Z,99.90
2018-03-29T03:47:55.520Z,99.90
2018-03-29T03:50:30.803Z,99.90
2018-03-29T03:53:04.984Z,99.90
2018-03-29T03:55:33.203Z,99.90
2018-03-29T03:58:00.691Z,99.90
2018-03-29T04:00:27.305Z,99.90
2018-03-29T04:03:03.393Z,99.90
2018-03-29T04:05:32.472Z,99.90
2018-03-29T04:08:00.455Z,99.90
2018-03-29T04:10:41.422Z,99.90
2018-03-29T04:13:18.225Z,99.90
2018-03-29T04:15:51.024Z,99.90
2018-03-29T04:18:23.445Z,99.90
2018-03-29T04:20:58.011Z,99.90
2018-03-29T04:23:32.376Z,99.90
2018-03-29T04:26:01.541Z,99.90
2018-03-29T04:28:31.744Z,99.90
2018-03-29T04:31:05.127Z,99.90
2018-03-29T04:33:35.460Z,99.90
2018-03-29T04:36:03.854Z,99.90
2018-03-29T04:38:36.067Z,99.90
2018-03-29T04:41:06.406Z,99.90
2018-03-29T04:43:39.597Z,99.90
2018-03-29T04:46:10.172Z,99.90
2018-03-29T04:48:42.247Z,99.90
2018-03-29T04:51:11.819Z,99.90
2018-03-29T04:53:46.795Z,99.90
2018-03-29T04:56:15.158Z,99.90
2018-03-29T04:58:47.047Z,99.90
2018-03-29T05:01:37.603Z,99.90
2018-03-29T05:04:05.443Z,99.90
2018-03-29T05:06:34.507Z,99.90
2018-03-29T05:09:07.160Z,99.90
2018-03-29T05:11:37.569Z,99.90
2018-03-29T05:14:05.559Z,99.90
2018-03-29T05:16:40.696Z,99.90
2018-03-29T05:19:13.570Z,99.90
2018-03-29T05:21:41.495Z,99.90
2018-03-29T05:24:11.400Z,99.90
2018-03-29T05:26:40.553Z,99.90
2018-03-29T05:29:12.434Z,99.90
2018-03-29T05:31:50.677Z,99.90
2018-03-29T05:34:20.041Z,99.90
2018-03-29T05:36:52.083Z,99.90
2018-03-29T05:39:21.435Z,99.90
2018-03-29T05:41:54.403Z,99.90
2018-03-29T05:44:22.465Z,99.90
2018-03-29T05:46:52.702Z,99.90
2018-03-29T05:49:20.988Z,99.90
2018-03-29T05:51:47.665Z,99.90
2018-03-29T05:54:18.560Z,99.90
2018-03-29T05:56:46.422Z,99.90
2018-03-29T05:59:17.073Z,99.90
2018-03-29T06:01:48.929Z,99.90
2018-03-29T06:04:22.755Z,99.90
2018-03-29T06:06:51.124Z,99.90
2018-03-29T06:09:23.775Z,99.90
2018-03-29T06:11:51.474Z,99.90
2018-03-29T06:14:22.753Z,99.90
2018-03-29T06:16:50.367Z,99.90
2018-03-29T06:19:16.995Z,99.90
2018-03-29T06:21:46.404Z,99.90
2018-03-29T06:24:13.809Z,99.90
2018-03-29T06:26:47.440Z,99.90
2018-03-29T06:29:15.880Z,99.90
2018-03-29T06:31:44.264Z,99.90
2018-03-29T06:34:12.780Z,99.90
2018-03-29T06:36:42.333Z,99.90
2018-03-29T06:39:10.972Z,99.90
2018-03-29T06:41:47.692Z,99.90
2018-03-29T06:44:15.184Z,99.90
2018-03-29T06:46:47.817Z,99.90
2018-03-29T06:49:16.420Z,99.90
2018-03-29T06:51:42.979Z,99.90
2018-03-29T06:54:16.533Z,99.90
2018-03-29T06:56:47.699Z,99.90
2018-03-29T06:59:18.284Z,99.90
2018-03-29T07:01:45.536Z,99.90
2018-03-29T07:04:19.135Z,99.90
2018-03-29T07:06:51.087Z,99.90
2018-03-29T07:09:19.476Z,99.90
2018-03-29T07:11:46.779Z,99.90
2018-03-29T07:14:16.010Z,99.90
2018-03-29T07:16:43.096Z,99.90
2018-03-29T07:19:10.411Z,99.90
2018-03-29T07:21:42.614Z,99.90
2018-03-29T07:24:15.210Z,99.90
2018-03-29T07:26:42.853Z,99.90
2018-03-29T07:29:14.194Z,99.90
2018-03-29T07:31:43.400Z,99.90
2018-03-29T07:34:25.919Z,99.90
2018-03-29T07:36:57.460Z,99.90
2018-03-29T07:39:24.894Z,99.90
2018-03-29T07:42:09.429Z,99.90
2018-03-29T07:44:37.105Z,99.90
2018-03-29T07:47:04.630Z,99.90
2018-03-29T07:49:54.885Z,99.90
2018-03-29T07:52:34.541Z,99.90
2018-03-29T07:55:24.298Z,99.90
2018-03-29T07:57:58.926Z,99.90
2018-03-29T08:00:27.342Z,99.90
2018-03-29T08:02:57.753Z,99.90
2018-03-29T08:05:27.131Z,99.90
2018-03-29T08:07:54.668Z,99.90
2018-03-29T08:10:29.957Z,99.90
2018-03-29T08:13:04.852Z,99.90
2018-03-29T08:15:34.188Z,99.90
2018-03-29T08:18:04.067Z,99.90
2018-03-29T08:20:37.533Z,99.90
2018-03-29T08:23:07.069Z,99.90
2018-03-29T08:25:46.596Z,99.90
2018-03-29T08:28:14.323Z,99.90
2018-03-29T08:30:44.746Z,99.90
2018-03-29T08:33:24.588Z,99.90
2018-03-29T08:35:53.671Z,99.90
2018-03-29T08:38:22.724Z,99.90
2018-03-29T08:40:49.672Z,99.90
2018-03-29T08:43:30.884Z,99.90
2018-03-29T08:45:58.693Z,99.90
2018-03-29T08:48:26.135Z,99.90
2018-03-29T08:50:52.760Z,99.90
2018-03-29T08:53:22.065Z,99.90
2018-03-29T08:55:52.094Z,99.90
2018-03-29T08:58:30.307Z,99.90
2018-03-29T09:00:57.031Z,99.90
2018-03-29T09:03:24.367Z,99.90
2018-03-29T09:05:52.115Z,99.90
2018-03-29T09:08:18.688Z,99.90
2018-03-29T09:10:48.354Z,99.90
2018-03-29T09:13:16.953Z,99.90
2018-03-29T09:15:54.151Z,99.80
2018-03-29T09:18:27.498Z,99.90
2018-03-29T09:20:57.602Z,99.90
2018-03-29T09:23:33.555Z,99.90
2018-03-29T09:26:01.180Z,99.90
2018-03-29T09:29:03.099Z,99.90
2018-03-29T09:31:31.513Z,99.90
2018-03-29T09:33:58.984Z,99.90
2018-03-29T09:36:26.823Z,99.90
2018-03-29T09:38:59.103Z,99.90
2018-03-29T09:41:27.573Z,99.90
2018-03-29T09:43:55.087Z,99.90
2018-03-29T09:46:31.267Z,97.90
2018-03-29T09:49:09.799Z,95.90
2018-03-29T09:51:48.375Z,95.80
2018-03-29T09:54:28.930Z,98.50
2018-03-29T09:57:11.787Z,96.20
2018-03-29T09:59:45.314Z,96.20
2018-03-29T10:02:18.135Z,96.40
2018-03-29T10:05:00.482Z,98.10
2018-03-29T10:07:33.509Z,98.10
2018-03-29T10:10:06.500Z,98.50
2018-03-29T10:12:35.780Z,94.40
2018-03-29T10:15:07.416Z,94.50
2018-03-29T10:17:34.182Z,96.00
2018-03-29T10:20:02.892Z,96.70
2018-03-29T10:22:32.208Z,93.30
2018-03-29T10:25:02.303Z,97.00
2018-03-29T10:27:34.844Z,96.90
2018-03-29T10:30:05.641Z,95.00
2018-03-29T10:32:35.711Z,96.10
2018-03-29T10:35:20.987Z,95.80
2018-03-29T10:37:48.455Z,95.40
2018-03-29T10:40:16.592Z,95.00
2018-03-29T10:42:43.396Z,95.00
2018-03-29T10:45:12.727Z,93.00
2018-03-29T10:47:42.137Z,94.70
2018-03-29T10:50:11.627Z,94.70
2018-03-29T10:52:39.730Z,93.30
2018-03-29T10:55:06.328Z,93.30
2018-03-29T10:57:33.730Z,93.80
2018-03-29T11:00:01.048Z,95.80
2018-03-29T11:02:39.448Z,92.30
2018-03-29T11:05:09.783Z,92.50
2018-03-29T11:07:39.204Z,94.00
2018-03-29T11:10:29.980Z,94.00
2018-03-29T11:13:02.738Z,92.60
2018-03-29T11:15:30.064Z,95.40
2018-03-29T11:17:57.625Z,96.50
2018-03-29T11:20:24.419Z,96.50
2018-03-29T11:23:00.531Z,95.30
2018-03-29T11:25:31.331Z,95.20
2018-03-29T11:27:59.135Z,93.90
2018-03-29T11:30:26.449Z,95.40
2018-03-29T11:32:54.999Z,94.80
2018-03-29T11:35:23.240Z,95.90
2018-03-29T11:37:50.651Z,94.70
2018-03-29T11:40:30.085Z,95.20
2018-03-29T11:42:57.439Z,93.30
2018-03-29T11:45:25.198Z,93.30
2018-03-29T11:47:53.636Z,96.70
2018-03-29T11:50:27.004Z,96.60
2018-03-29T11:52:57.387Z,94.90
2018-03-29T11:55:24.643Z,96.10
2018-03-29T11:58:01.475Z,96.30
2018-03-29T12:00:29.058Z,96.40
2018-03-29T12:02:57.250Z,96.90
2018-03-29T12:05:23.924Z,96.90
2018-03-29T12:07:51.280Z,99.00
2018-03-29T12:10:18.848Z,99.00
2018-03-29T12:12:47.379Z,96.80
2018-03-29T12:15:16.479Z,96.80
2018-03-29T12:17:47.139Z,97.30
2018-03-29T12:20:15.490Z,97.70
2018-03-29T12:22:51.282Z,96.10
2018-03-29T12:25:24.711Z,95.00
2018-03-29T12:27:54.103Z,95.00
2018-03-29T12:30:30.958Z,95.70
2018-03-29T12:33:16.407Z,97.90
2018-03-29T12:35:54.996Z,97.80
2018-03-29T12:38:25.557Z,98.60
2018-03-29T12:40:53.816Z,98.20
2018-03-29T12:43:20.419Z,98.20
2018-03-29T12:45:47.783Z,98.00
2018-03-29T12:48:15.116Z,97.80
2018-03-29T12:50:44.626Z,97.30
2018-03-29T12:53:12.864Z,99.40
2018-03-29T12:55:42.074Z,98.40
2018-03-29T12:58:10.335Z,96.30
2018-03-29T13:00:37.731Z,96.20
2018-03-29T13:03:05.140Z,96.90
2018-03-29T13:05:32.711Z,97.40
2018-03-29T13:08:03.213Z,97.00
2018-03-29T13:10:35.732Z,94.80
2018-03-29T13:13:04.400Z,92.90
2018-03-29T13:15:31.138Z,92.90
2018-03-29T13:17:58.442Z,95.60
2018-03-29T13:20:35.683Z,95.30
2018-03-29T13:23:02.299Z,95.30
2018-03-29T13:25:32.020Z,95.30
2018-03-29T13:28:06.584Z,91.50
2018-03-29T13:30:38.963Z,91.60
2018-03-29T13:33:05.655Z,92.70
2018-03-29T13:35:37.987Z,90.30
2018-03-29T13:38:11.911Z,94.40
2018-03-29T13:40:38.451Z,96.00
2018-03-29T13:43:15.783Z,92.80
2018-03-29T13:45:44.330Z,92.50
2018-03-29T13:48:14.707Z,92.50
2018-03-29T13:50:44.435Z,91.70
2018-03-29T13:53:18.047Z,91.70
2018-03-29T13:55:55.723Z,91.50
2018-03-29T13:58:31.397Z,93.00
2018-03-29T14:01:01.562Z,93.00
2018-03-29T14:03:33.500Z,93.00
2018-03-29T14:06:00.931Z,93.20
2018-03-29T14:08:28.300Z,92.40
2018-03-29T14:10:55.790Z,92.70
2018-03-29T14:13:23.233Z,92.70
2018-03-29T14:15:50.695Z,93.40
2018-03-29T14:18:23.135Z,93.30
2018-03-29T14:20:55.534Z,92.40
2018-03-29T14:23:23.235Z,93.80
2018-03-29T14:25:50.550Z,93.50
2018-03-29T14:28:18.048Z,93.80
2018-03-29T14:30:45.326Z,93.20
2018-03-29T14:33:12.739Z,92.60
2018-03-29T14:35:40.102Z,93.20
2018-03-29T14:38:13.257Z,94.00
2018-03-29T14:40:41.308Z,94.00
2018-03-29T14:43:13.716Z,93.90
2018-03-29T14:45:42.880Z,94.20
2018-03-29T14:48:10.301Z,93.70
2018-03-29T14:50:40.607Z,94.90
2018-03-29T14:53:08.120Z,93.70
2018-03-29T14:55:35.606Z,91.40
2018-03-29T14:58:02.880Z,92.10
2018-03-29T15:00:45.948Z,92.10
2018-03-29T15:03:24.519Z,94.30
2018-03-29T15:05:56.172Z,92.70
2018-03-29T15:08:25.152Z,92.70
2018-03-29T15:10:52.125Z,94.70
2018-03-29T15:13:19.528Z,94.90
2018-03-29T15:15:47.183Z,94.40
2018-03-29T15:18:17.583Z,94.80
2018-03-29T15:20:45.297Z,94.90
2018-03-29T15:23:16.981Z,94.90
2018-03-29T15:25:46.295Z,94.20
2018-03-29T15:28:16.720Z,94.60
2018-03-29T15:30:46.024Z,93.30
2018-03-29T15:33:13.464Z,93.10
2018-03-29T15:35:49.197Z,93.10
2018-03-29T15:38:34.163Z,94.40
2018-03-29T15:41:07.552Z,93.00
2018-03-29T15:43:34.163Z,93.00
2018-03-29T15:46:15.767Z,93.00
2018-03-29T15:48:43.068Z,92.90
2018-03-29T15:51:16.280Z,94.20
2018-03-29T15:53:46.170Z,94.20
2018-03-29T15:56:29.183Z,94.40
2018-03-29T15:59:01.815Z,94.50
2018-03-29T16:01:29.427Z,94.30
2018-03-29T16:03:56.028Z,94.40
2018-03-29T16:06:24.415Z,94.70
2018-03-29T16:08:51.801Z,93.80
2018-03-29T16:11:19.111Z,95.00
2018-03-29T16:14:14.083Z,95.30
2018-03-29T16:16:42.635Z,95.80
2018-03-29T16:19:16.494Z,95.80
2018-03-29T16:21:45.004Z,96.10
2018-03-29T16:24:19.117Z,96.10
2018-03-29T16:26:46.403Z,95.60
2018-03-29T16:29:15.671Z,94.60
2018-03-29T16:31:48.088Z,94.60
2018-03-29T16:34:24.640Z,94.70
2018-03-29T16:36:55.091Z,95.10
2018-03-29T16:39:24.489Z,95.80
2018-03-29T16:41:52.885Z,95.70
2018-03-29T16:44:20.382Z,96.00
2018-03-29T16:46:51.494Z,96.90
2018-03-29T16:49:18.160Z,96.90
2018-03-29T16:51:50.321Z,96.90
2018-03-29T16:54:37.774Z,96.50
2018-03-29T16:57:05.548Z,96.50
2018-03-29T16:59:37.179Z,96.60
2018-03-29T17:02:09.572Z,97.10
2018-03-29T17:04:47.173Z,96.60
2018-03-29T17:07:21.635Z,96.10
2018-03-29T17:09:50.281Z,96.00
2018-03-29T17:12:20.632Z,96.10
2018-03-29T17:15:02.927Z,97.30
2018-03-29T17:17:30.490Z,97.30
2018-03-29T17:20:03.492Z,98.10
2018-03-29T17:22:34.759Z,98.50
2018-03-29T17:25:03.059Z,97.70
2018-03-29T17:27:30.551Z,98.00
2018-03-29T17:29:59.414Z,98.90
2018-03-29T17:32:31.606Z,98.50
2018-03-29T17:34:59.030Z,98.80
2018-03-29T17:37:26.904Z,99.00
2018-03-29T17:39:57.323Z,99.00
2018-03-29T17:42:41.031Z,99.60
2018-03-29T17:45:12.768Z,99.90
2018-03-29T17:47:58.313Z,99.90
2018-03-29T17:50:27.675Z,99.90
2018-03-29T17:53:00.508Z,99.90
2018-03-29T17:55:28.318Z,99.90
2018-03-29T17:58:04.383Z,99.90
2018-03-29T18:00:31.752Z,99.90
2018-03-29T18:02:59.895Z,99.90
2018-03-29T18:05:27.999Z,99.90
2018-03-29T18:07:55.496Z,99.90
2018-03-29T18:10:22.814Z,99.90
2018-03-29T18:12:54.043Z,99.90
2018-03-29T18:15:21.334Z,99.90
2018-03-29T18:17:49.447Z,99.90
2018-03-29T18:20:18.331Z,99.90
2018-03-29T18:22:46.048Z,99.90
2018-03-29T18:25:19.524Z,99.90
2018-03-29T18:27:47.475Z,99.90
2018-03-29T18:30:20.619Z,99.90
2018-03-29T18:32:48.013Z,99.90
2018-03-29T18:35:16.731Z,99.90
2018-03-29T18:37:53.578Z,99.90
2018-03-29T18:40:37.883Z,99.90
2018-03-29T18:43:12.803Z,99.90
2018-03-29T18:45:47.186Z,99.90
2018-03-29T18:48:14.627Z,99.90
2018-03-29T18:50:41.871Z,99.90
2018-03-29T18:53:24.054Z,99.90
2018-03-29T18:55:51.415Z,99.90
2018-03-29T18:58:18.779Z,99.90
2018-03-29T19:00:53.972Z,99.90
2018-03-29T19:03:23.995Z,99.90
2018-03-29T19:05:52.196Z,99.90
2018-03-29T19:08:19.507Z,99.90
2018-03-29T19:10:49.527Z,99.90
2018-03-29T19:13:21.666Z,99.90
2018-03-29T19:15:50.938Z,99.90
2018-03-29T19:18:32.805Z,99.90
2018-03-29T19:21:02.304Z,99.90
2018-03-29T19:23:38.176Z,99.90
2018-03-29T19:26:05.723Z,99.90
2018-03-29T19:28:37.292Z,99.90
2018-03-29T19:31:13.948Z,99.90
2018-03-29T19:33:48.403Z,99.90
2018-03-29T19:36:21.838Z,99.90
2018-03-29T19:38:51.835Z,99.90
2018-03-29T19:41:31.595Z,99.90
2018-03-29T19:44:00.083Z,99.90
2018-03-29T19:46:29.735Z,99.90
2018-03-29T19:48:57.158Z,99.90
2018-03-29T19:51:25.459Z,99.90
2018-03-29T19:53:54.579Z,99.90
2018-03-29T19:56:22.002Z,99.90
2018-03-29T19:58:58.550Z,99.90
2018-03-29T20:01:26.045Z,99.90
2018-03-29T20:03:55.338Z,99.90
2018-03-29T20:06:24.724Z,99.90
2018-03-29T20:09:04.651Z,99.90
2018-03-29T20:11:51.176Z,99.90
2018-03-29T20:14:20.207Z,99.90
2018-03-29T20:16:48.679Z,99.90
2018-03-29T20:19:18.037Z,99.90
2018-03-29T20:21:48.471Z,99.90
2018-03-29T20:24:20.856Z,99.90
2018-03-29T20:26:50.888Z,99.90
2018-03-29T20:29:19.031Z,99.90
2018-03-29T20:31:54.343Z,99.90
2018-03-29T20:34:31.898Z,99.90
2018-03-29T20:37:06.469Z,99.90
2018-03-29T20:39:37.793Z,99.90
2018-03-29T20:42:07.243Z,99.90
2018-03-29T20:44:34.519Z,99.90
2018-03-29T20:47:06.153Z,99.90
2018-03-29T20:49:33.671Z,99.90
2018-03-29T20:52:23.471Z,99.90
2018-03-29T20:55:08.295Z,99.90
2018-03-29T20:57:40.576Z,99.90
2018-03-29T21:00:17.185Z,99.90
2018-03-29T21:03:01.620Z,99.90
2018-03-29T21:05:29.840Z,99.90
2018-03-29T21:08:15.465Z,99.90
2018-03-29T21:11:02.324Z,99.90
2018-03-29T21:13:31.546Z,99.90
2018-03-29T21:16:00.483Z,99.90
2018-03-29T21:18:32.657Z,99.90
2018-03-29T21:21:01.732Z,99.90
2018-03-29T21:23:31.059Z,99.90
2018-03-29T21:26:04.939Z,99.90
2018-03-29T21:28:38.067Z,99.90
2018-03-29T21:31:07.555Z,99.90
2018-03-29T21:33:36.911Z,99.90
2018-03-29T21:36:07.507Z,99.90
2018-03-29T21:38:34.921Z,99.90
2018-03-29T21:41:04.143Z,99.90
2018-03-29T21:43:31.303Z,99.90
2018-03-29T21:45:59.523Z,99.90
2018-03-29T21:48:37.403Z,99.90
2018-03-29T21:51:05.720Z,99.90
2018-03-29T21:53:37.386Z,99.90
2018-03-29T21:56:07.721Z,99.90
2018-03-29T21:58:37.624Z,99.90
2018-03-29T22:01:06.627Z,99.90
2018-03-29T22:03:37.714Z,99.90
2018-03-29T22:06:08.203Z,99.90
2018-03-29T22:08:36.590Z,99.90
2018-03-29T22:11:04.710Z,99.90
2018-03-29T22:13:52.095Z,99.90
2018-03-29T22:16:22.255Z,99.90
2018-03-29T22:18:50.681Z,99.90
2018-03-29T22:21:20.888Z,99.90
2018-03-29T22:23:52.629Z,99.90
2018-03-29T22:26:21.068Z,99.90
2018-03-29T22:28:49.446Z,99.90
2018-03-29T22:31:20.444Z,99.90
2018-03-29T22:33:47.778Z,99.90
2018-03-29T22:36:14.515Z,99.90
2018-03-29T22:38:42.748Z,99.90
2018-03-29T22:41:15.062Z,99.90
2018-03-29T22:43:49.995Z,99.90
2018-03-29T22:46:17.587Z,99.90
2018-03-29T22:48:45.660Z,99.90
2018-03-29T22:51:13.059Z,99.90
2018-03-29T22:53:44.166Z,99.90
2018-03-29T22:56:11.387Z,99.90
2018-03-29T22:58:38.852Z,99.90
2018-03-29T23:01:18.571Z,99.90
2018-03-29T23:03:51.850Z,99.90
2018-03-29T23:06:22.143Z,99.90
2018-03-29T23:08:49.475Z,99.90
2018-03-29T23:11:22.228Z,99.90
2018-03-29T23:13:49.608Z,99.90
2018-03-29T23:16:16.903Z,99.90
2018-03-29T23:18:47.697Z,99.90
2018-03-29T23:21:16.042Z,99.90
2018-03-29T23:23:45.381Z,99.90
2018-03-29T23:26:14.723Z,99.90
2018-03-29T23:28:47.667Z,99.90
2018-03-29T23:31:18.784Z,99.90
2018-03-29T23:33:55.927Z,99.90
2018-03-29T23:36:28.444Z,99.90
2018-03-29T23:38:56.816Z,99.90
2018-03-29T23:41:25.187Z,99.90
2018-03-29T23:43:52.774Z,99.90
2018-03-29T23:46:44.073Z,99.90
2018-03-29T23:49:12.307Z,99.90
2018-03-29T23:51:39.391Z,99.90
2018-03-29T23:54:12.508Z,99.90
2018-03-29T23:56:41.659Z,99.90
2018-03-29T23:59:11.632Z,99.90
